Airfield :
LOGIN :

Register | Disclaimer

   EN    FR    IT 

 










Legend :    VFR   Marginal VFR   IFR   Intensive IFR   Very Intensive IFR
Visi :
Ceiling :
>= 8 km
>= 3000ft
5 to 8 km
1000 to 3000 ft
1500m to 5 km
500 to 1000 ft
800 to 1500m
200 to 500 ft
< 800m
< 200 ft
Symbols :   Thunderstorms  Fog  Heavy snow  Heavy precipitations  Wind > 20 kt
SIGMETs :     Misc.  Thunderstorms  Icing  Turbulence  Mountain Waves  Volcanic Ashes







- Airport Elevation : 202 ft
- IATA code : LGW
- Download approach charts


EGKK - London Gatwick

CURRENT METAR :
  • 112020Z 08006KT 4000 BR BKN027 04/04 Q1023

EXPIRED METARs :
  • 111950Z 08004KT 4500 BR SCT025 03/03 Q1023
  • 111920Z 08004KT 4500 BR FEW023 02/02 Q1023
  • 111850Z 08003KT 6000 NSC 04/04 Q1023
  • 111820Z 10003KT 6000 NSC 03/03 Q1023
  • 111750Z 09005KT 7000 NSC 03/03 Q1023

TAF AMD TAF EGKK
Valid from the 11 at 19:00 until the 13 at 00:00 UTC


111935Z 1119/1224 10005KT 7000 FEW035
TEMPO 1119/1210 3000 BR
PROB40
TEMPO 1122/1209 0300 FG VV///
BECMG 1209/1211 9999
No reported NOTAMs for that airfield.



MET'MAP, your aeronautical weather chart ! - Copyright ORBIFLY December 2007 - Disclaimer

ORBIFLY MET'MAP TEAM :

Programming & Development : Alexandra Zaïnal
Concept & Development : Baudouin d'Aumeries
Co-Development & Prog : Marc-Olivier Méhu
Technical & hardware support : Manuel Goepfert

Contact : metmap@orbifly.com




SOURCES & CREDITS :

   NOAA